Time;durP1;ratioP1;P1;durP2;ratioP2;P2;SDS_P1;SDS_P2;PMS_P1;PMS_P2;Temp;Humidity;BMP_temperature;BMP_pressure;BME280_temperature;BME280_humidity;BME280_pressure;Samples;Min_cycle;Max_cycle;Signal;HPM_P1;HPM_P2
2021/10/05 00:01:42;;;;;;;8.52;6.90;;;;;;;7.25;88.24;93806.50;5032692;28;20048;-81
2021/10/05 00:04:09;;;;;;;9.65;7.10;;;;;;;7.18;88.16;93796.19;5032320;28;20516;-81
2021/10/05 00:06:36;;;;;;;8.48;6.43;;;;;;;7.11;88.44;93789.38;5032317;28;20052;-81
2021/10/05 00:09:03;;;;;;;8.93;6.63;;;;;;;6.93;90.19;93780.28;5032547;28;20049;-81
2021/10/05 00:11:30;;;;;;;8.20;6.32;;;;;;;7.00;89.85;93795.72;5032611;28;20053;-81
2021/10/05 00:13:57;;;;;;;8.50;6.55;;;;;;;7.04;89.50;93802.09;5032361;28;20049;-81
2021/10/05 00:16:25;;;;;;;12.10;7.22;;;;;;;7.00;89.24;93805.94;5032573;28;20060;-81
2021/10/05 00:18:52;;;;;;;13.38;9.48;;;;;;;6.81;89.67;93798.56;5031933;28;20049;-81
2021/10/05 00:21:19;;;;;;;11.93;9.43;;;;;;;6.81;89.94;93806.22;5032203;28;20055;-82
2021/10/05 00:23:46;;;;;;;10.60;9.05;;;;;;;6.80;89.94;93801.28;5031963;28;20049;-81
2021/10/05 00:26:13;;;;;;;9.73;7.97;;;;;;;6.76;90.35;93803.41;5032362;28;20045;-81
2021/10/05 00:28:41;;;;;;;10.02;7.28;;;;;;;6.72;90.90;93807.28;5032195;28;20448;-81
2021/10/05 00:31:08;;;;;;;9.90;6.90;;;;;;;6.71;90.94;93792.13;5032481;28;20054;-81
2021/10/05 00:33:36;;;;;;;8.00;6.60;;;;;;;6.63;90.69;93780.97;5031068;28;20053;-81
2021/10/05 00:36:03;;;;;;;10.40;6.97;;;;;;;6.84;91.03;93796.66;5012426;28;20057;-81
2021/10/05 00:38:30;;;;;;;8.40;6.50;;;;;;;6.82;90.98;93791.72;5012367;28;20049;-81
2021/10/05 00:40:57;;;;;;;10.73;6.53;;;;;;;6.80;90.92;93799.53;5012001;28;20105;-82
2021/10/05 00:43:24;;;;;;;9.15;6.75;;;;;;;6.77;91.25;93792.22;5011968;28;20052;-81
2021/10/05 00:45:51;;;;;;;8.23;6.40;;;;;;;6.77;91.80;93791.44;5012364;28;20489;-81
2021/10/05 00:48:18;;;;;;;8.43;7.45;;;;;;;6.50;92.26;93763.72;5011759;28;20394;-81
2021/10/05 00:50:48;;;;;;;8.38;6.50;;;;;;;6.65;92.09;93789.28;5011882;28;20496;-81
2021/10/05 00:53:16;;;;;;;8.40;6.60;;;;;;;6.65;91.36;93781.63;5011899;28;20069;-81
2021/10/05 00:55:43;;;;;;;7.40;6.35;;;;;;;6.60;92.11;93783.09;5011758;28;20050;-81
2021/10/05 00:58:10;;;;;;;9.32;7.07;;;;;;;6.53;92.27;93781.22;5011619;28;20046;-81
2021/10/05 01:00:38;;;;;;;8.93;6.25;;;;;;;6.55;92.24;93783.59;5011409;28;20050;-81
2021/10/05 01:03:05;;;;;;;9.65;7.13;;;;;;;6.51;92.42;93777.25;5011435;28;20137;-82
2021/10/05 01:05:32;;;;;;;8.55;6.90;;;;;;;6.47;92.79;93778.56;5011793;28;20054;-81
2021/10/05 01:08:01;;;;;;;9.43;7.60;;;;;;;6.40;93.25;93774.13;5011751;28;20153;-81
2021/10/05 01:10:29;;;;;;;10.50;7.70;;;;;;;6.34;93.80;93764.59;5010870;28;20057;-83
2021/10/05 01:12:55;;;;;;;12.32;7.28;;;;;;;6.31;93.13;93761.59;5011338;28;20050;-82
2021/10/05 01:15:26;;;;;;;10.07;7.75;;;;;;;5.77;92.98;93689.97;5011502;28;20060;-83
2021/10/05 01:17:53;;;;;;;11.05;8.02;;;;;;;5.95;93.23;93709.31;5011316;28;20409;-83
2021/10/05 01:20:20;;;;;;;10.32;8.02;;;;;;;6.20;93.09;93740.59;5011458;28;20049;-85
2021/10/05 01:22:48;;;;;;;11.25;8.35;;;;;;;6.27;93.14;93756.03;5011280;28;20062;-85
2021/10/05 01:25:16;;;;;;;10.15;8.60;;;;;;;6.39;92.41;93769.22;5011057;28;20053;-85
2021/10/05 01:27:46;;;;;;;10.10;8.48;;;;;;;6.23;92.88;93754.78;5011391;28;20042;-83
2021/10/05 01:30:13;;;;;;;12.70;9.85;;;;;;;6.21;93.14;93764.38;5011440;28;20061;-83
2021/10/05 01:32:40;;;;;;;11.20;9.05;;;;;;;6.35;92.90;93785.81;5011063;28;20053;-81
2021/10/05 01:35:08;;;;;;;11.30;8.60;;;;;;;6.36;92.61;93787.41;5024581;28;20081;-80
2021/10/05 01:37:35;;;;;;;10.73;7.95;;;;;;;6.27;92.75;93790.00;5030553;28;20053;-80
2021/10/05 01:40:05;;;;;;;12.20;9.30;;;;;;;6.10;93.03;93756.13;5030692;28;20053;-80
2021/10/05 01:42:32;;;;;;;9.77;8.05;;;;;;;6.04;92.47;93756.00;5030539;28;20099;-84
2021/10/05 01:44:58;;;;;;;13.65;9.45;;;;;;;6.20;92.84;93767.88;5030537;28;20049;-81
2021/10/05 01:47:25;;;;;;;11.15;8.73;;;;;;;6.21;92.93;93779.69;5030493;28;20485;-81
2021/10/05 01:49:52;;;;;;;10.98;7.80;;;;;;;6.24;92.69;93780.13;5009627;28;20472;-81
2021/10/05 01:52:19;;;;;;;9.90;8.25;;;;;;;6.08;92.92;93754.72;5029724;28;20050;-81
2021/10/05 01:54:46;;;;;;;11.05;8.00;;;;;;;5.96;93.24;93751.69;5030759;28;20061;-82
2021/10/05 01:57:14;;;;;;;11.65;8.85;;;;;;;6.07;93.79;93779.41;5030698;28;20698;-81
2021/10/05 01:59:41;;;;;;;11.30;8.52;;;;;;;5.94;93.38;93748.53;5030619;28;20096;-81
2021/10/05 02:02:08;;;;;;;11.65;8.48;;;;;;;5.95;92.60;93755.22;5030199;28;20523;-81
2021/10/05 02:04:35;;;;;;;8.25;7.05;;;;;;;5.88;92.52;93742.38;5023371;28;20417;-81
2021/10/05 02:07:02;;;;;;;10.98;7.65;;;;;;;6.08;92.96;93780.22;5010444;28;20048;-80
2021/10/05 02:09:29;;;;;;;8.90;6.65;;;;;;;6.07;92.71;93776.09;5010717;28;20042;-81
2021/10/05 02:11:56;;;;;;;11.07;9.10;;;;;;;6.06;92.83;93769.41;5010771;28;20057;-80
2021/10/05 02:14:24;;;;;;;12.52;7.88;;;;;;;5.98;93.42;93762.56;5010203;28;20065;-80
2021/10/05 02:16:51;;;;;;;11.48;8.25;;;;;;;6.02;94.09;93771.47;5010123;28;20046;-80
2021/10/05 02:19:18;;;;;;;9.90;7.55;;;;;;;6.08;94.01;93772.56;5010529;28;20050;-80
2021/10/05 02:21:46;;;;;;;12.05;7.80;;;;;;;6.00;94.73;93779.28;5009835;28;20049;-80
2021/10/05 02:26:57;;;;;;;10.10;7.40;;;;;;;5.92;94.44;93774.19;5010060;28;20057;-82
2021/10/05 02:29:26;;;;;;;11.30;9.00;;;;;;;5.84;94.94;93774.25;5010036;28;20569;-82
2021/10/05 02:31:53;;;;;;;13.30;9.35;;;;;;;5.86;94.85;93769.75;5010035;28;20045;-82
2021/10/05 02:34:20;;;;;;;11.60;8.82;;;;;;;5.73;94.52;93748.16;5016905;28;20497;-83
2021/10/05 02:36:47;;;;;;;10.98;8.95;;;;;;;5.87;94.00;93763.69;5029491;28;20054;-81
2021/10/05 02:39:14;;;;;;;10.98;8.35;;;;;;;5.81;93.99;93762.63;5029721;28;20053;-80
2021/10/05 02:41:41;;;;;;;10.65;8.15;;;;;;;5.78;93.93;93767.25;5029940;28;20057;-80
2021/10/05 02:44:08;;;;;;;10.52;8.05;;;;;;;5.76;94.68;93775.06;5029669;28;20053;-80
2021/10/05 02:46:37;;;;;;;9.80;7.65;;;;;;;5.70;94.62;93778.28;5029360;28;20080;-79
2021/10/05 02:49:05;;;;;;;11.90;7.63;;;;;;;5.64;94.17;93763.66;5029800;28;20057;-80
2021/10/05 02:51:32;;;;;;;9.48;7.10;;;;;;;5.63;95.34;93765.41;5029752;28;20067;-80
2021/10/05 02:53:59;;;;;;;10.23;7.68;;;;;;;5.60;96.08;93760.66;5029632;28;20049;-81
2021/10/05 02:56:26;;;;;;;10.80;7.85;;;;;;;4.90;95.64;93655.94;5029295;28;20056;-80
2021/10/05 02:58:53;;;;;;;9.77;7.63;;;;;;;5.58;95.08;93760.81;5029383;28;20045;-80
2021/10/05 03:01:19;;;;;;;9.65;7.82;;;;;;;5.56;94.97;93770.34;5029598;28;20056;-81
2021/10/05 03:03:48;;;;;;;11.55;8.30;;;;;;;5.46;94.75;93754.47;5028249;28;20057;-81
2021/10/05 03:06:15;;;;;;;10.80;8.15;;;;;;;5.48;94.78;93763.53;5009714;28;20050;-80
2021/10/05 03:08:42;;;;;;;10.65;7.43;;;;;;;5.43;95.40;93767.53;5009493;28;20081;-80
2021/10/05 03:11:10;;;;;;;10.40;7.78;;;;;;;5.45;95.04;93773.25;5009927;28;20133;-80
2021/10/05 03:13:37;;;;;;;10.20;8.20;;;;;;;5.45;95.20;93783.44;5007179;28;20053;-80
2021/10/05 03:16:05;;;;;;;12.45;11.20;;;;;;;5.39;95.49;93789.19;5007299;28;20054;-80
2021/10/05 03:18:33;;;;;;;12.20;10.38;;;;;;;5.30;95.94;93780.78;5009025;28;20395;-80
2021/10/05 03:21:01;;;;;;;13.18;9.45;;;;;;;5.31;95.76;93790.00;5009251;28;20050;-80
2021/10/05 03:23:28;;;;;;;11.18;9.40;;;;;;;5.00;96.95;93749.97;5009222;28;20054;-80
2021/10/05 03:25:55;;;;;;;11.20;9.13;;;;;;;5.11;97.70;93779.38;5009177;28;20045;-81
2021/10/05 03:28:22;;;;;;;14.80;9.95;;;;;;;5.01;97.92;93779.56;5009546;28;21024;-81
2021/10/05 03:30:49;;;;;;;14.60;10.75;;;;;;;5.08;98.34;93791.50;5009572;28;20061;-81
2021/10/05 03:33:16;;;;;;;14.63;12.23;;;;;;;5.15;98.20;93791.66;5009139;28;20053;-81
2021/10/05 03:35:42;;;;;;;13.20;10.95;;;;;;;5.14;98.29;93791.81;5030502;28;20049;-81
2021/10/05 03:38:11;;;;;;;13.52;9.40;;;;;;;5.12;99.09;93791.97;5014531;28;20046;-81
2021/10/05 03:40:38;;;;;;;12.15;10.63;;;;;;;5.02;98.19;93768.41;5013205;28;21224;-81
2021/10/05 03:43:04;;;;;;;14.48;10.13;;;;;;;5.18;97.52;93793.84;5012924;28;20050;-81
2021/10/05 03:45:31;;;;;;;13.15;10.07;;;;;;;5.19;97.45;93800.53;5013161;28;20045;-81
2021/10/05 03:47:58;;;;;;;14.00;9.57;;;;;;;5.15;97.22;93801.84;5013018;28;20417;-81
2021/10/05 03:50:25;;;;;;;11.73;9.52;;;;;;;5.16;96.83;93803.41;5013260;28;20053;-81
2021/10/05 03:52:52;;;;;;;13.75;9.43;;;;;;;5.06;96.71;93788.28;5013188;28;20053;-81
2021/10/05 03:55:20;;;;;;;10.90;9.45;;;;;;;5.08;96.78;93793.22;5015202;28;20045;-81
2021/10/05 03:57:47;;;;;;;13.75;9.27;;;;;;;5.08;96.60;93804.22;5032776;28;20050;-81
2021/10/05 04:00:15;;;;;;;11.32;9.07;;;;;;;5.04;97.42;93802.13;5032328;28;20548;-81
2021/10/05 04:02:43;;;;;;;11.25;9.70;;;;;;;4.86;97.40;93776.88;5032794;28;20057;-81
2021/10/05 04:05:10;;;;;;;12.68;9.65;;;;;;;4.97;96.89;93794.38;5033283;28;20050;-81
2021/10/05 04:07:37;;;;;;;10.52;9.25;;;;;;;5.00;97.39;93803.44;5033114;28;20057;-81
2021/10/05 04:10:05;;;;;;;12.02;10.50;;;;;;;5.04;97.00;93794.50;5032799;28;20099;-80
2021/10/05 04:12:34;;;;;;;17.67;11.07;;;;;;;5.06;96.71;93807.88;5032530;28;20421;-80
2021/10/05 04:15:01;;;;;;;11.48;9.63;;;;;;;5.07;96.35;93810.28;5032620;28;20107;-80
2021/10/05 04:17:29;;;;;;;13.98;10.98;;;;;;;4.92;97.54;93794.81;5032367;28;20069;-80
2021/10/05 04:19:56;;;;;;;12.98;9.63;;;;;;;4.82;97.61;93777.19;5032077;28;20042;-81
2021/10/05 04:22:23;;;;;;;11.35;9.07;;;;;;;4.90;98.18;93796.75;5032484;28;20049;-80
2021/10/05 04:24:50;;;;;;;13.57;10.43;;;;;;;4.89;98.13;93805.34;5025407;28;20096;-80
2021/10/05 04:27:17;;;;;;;12.77;9.93;;;;;;;4.88;99.00;93801.22;5012163;28;20054;-80
2021/10/05 04:29:46;;;;;;;12.40;9.13;;;;;;;4.91;98.39;93803.41;5022344;28;20049;-80
2021/10/05 04:32:13;;;;;;;13.05;9.35;;;;;;;4.99;97.42;93810.25;5032383;28;20048;-80
2021/10/05 04:34:39;;;;;;;12.88;8.80;;;;;;;4.74;97.23;93772.09;5022590;28;20045;-80
2021/10/05 04:37:06;;;;;;;12.05;8.93;;;;;;;5.02;96.82;93815.06;5012269;28;20420;-80
2021/10/05 04:39:33;;;;;;;14.48;9.57;;;;;;;5.02;96.99;93820.16;5019337;28;20045;-80
2021/10/05 04:42:01;;;;;;;15.32;10.50;;;;;;;4.79;97.54;93795.34;5031755;28;20091;-80
2021/10/05 04:44:28;;;;;;;15.65;11.38;;;;;;;4.94;97.44;93826.03;5031158;28;20057;-81
2021/10/05 04:46:56;;;;;;;17.98;12.15;;;;;;;5.00;97.42;93831.44;5031469;28;20045;-80
2021/10/05 04:49:23;;;;;;;17.52;12.98;;;;;;;4.90;97.31;93812.03;5031968;28;20049;-80
2021/10/05 04:51:50;;;;;;;19.23;13.27;;;;;;;4.90;97.33;93816.31;5031930;28;20045;-79
2021/10/05 04:54:17;;;;;;;19.30;13.52;;;;;;;4.84;97.93;93819.50;5031718;28;20459;-80
2021/10/05 04:56:44;;;;;;;19.00;14.60;;;;;;;4.85;98.53;93833.84;5031469;28;20409;-79
2021/10/05 04:59:10;;;;;;;16.45;12.50;;;;;;;4.85;99.54;93832.06;5031685;28;20456;-79
2021/10/05 05:01:37;;;;;;;16.58;11.98;;;;;;;4.84;100.00;93838.13;5031214;28;20049;-80
2021/10/05 05:04:05;;;;;;;20.67;13.07;;;;;;;4.81;100.00;93833.31;5031608;28;20060;-79
2021/10/05 05:06:32;;;;;;;20.60;13.30;;;;;;;4.77;100.00;93830.31;5031407;28;20045;-79
2021/10/05 05:08:59;;;;;;;18.05;13.55;;;;;;;4.89;100.00;93837.63;5031665;28;20091;-80
2021/10/05 05:11:26;;;;;;;20.23;14.60;;;;;;;4.91;100.00;93831.44;5031779;28;20052;-79
2021/10/05 05:13:53;;;;;;;18.35;13.48;;;;;;;5.05;100.00;93844.50;5031470;28;20049;-79
2021/10/05 05:16:19;;;;;;;16.30;12.35;;;;;;;5.14;99.76;93846.06;5031376;28;20053;-79
2021/10/05 05:18:46;;;;;;;23.73;14.57;;;;;;;5.21;99.53;93848.78;5030989;28;20053;-79
2021/10/05 05:21:14;;;;;;;18.00;11.98;;;;;;;5.24;99.01;93843.38;5031367;28;20208;-79
2021/10/05 05:23:41;;;;;;;15.05;10.73;;;;;;;5.30;98.90;93849.56;5030975;28;20057;-80
2021/10/05 05:26:08;;;;;;;16.77;10.43;;;;;;;5.38;98.45;93849.56;5029722;28;20045;-80
2021/10/05 05:28:35;;;;;;;15.55;10.52;;;;;;;5.44;97.86;93848.09;5030790;28;20046;-80
2021/10/05 05:31:02;;;;;;;14.15;9.77;;;;;;;5.43;98.33;93838.88;5023568;28;20072;-79
2021/10/05 05:33:28;;;;;;;19.48;10.80;;;;;;;5.37;98.14;93821.69;5020308;28;20954;-79
2021/10/05 05:35:55;;;;;;;15.48;10.63;;;;;;;5.61;98.48;93848.88;5024351;28;20597;-79
2021/10/05 05:38:25;;;;;;;16.50;10.02;;;;;;;5.56;98.81;93831.50;5021866;28;20052;-79
2021/10/05 05:40:53;;;;;;;14.13;9.90;;;;;;;5.71;98.66;93844.41;5013857;28;20096;-79
2021/10/05 05:43:20;;;;;;;13.70;9.63;;;;;;;5.82;98.43;93844.97;5010728;28;20053;-79
2021/10/05 05:45:48;;;;;;;14.57;10.18;;;;;;;5.92;98.81;93834.63;5010852;28;20046;-80
2021/10/05 05:48:14;;;;;;;19.23;11.80;;;;;;;5.79;98.85;93802.00;5010825;28;20058;-80
2021/10/05 05:50:42;;;;;;;18.90;11.02;;;;;;;6.06;99.54;93826.28;5011028;28;20104;-80
2021/10/05 05:53:09;;;;;;;20.20;11.35;;;;;;;6.14;99.41;93826.25;5010959;28;20056;-80
2021/10/05 05:55:38;;;;;;;20.75;11.75;;;;;;;6.27;98.46;93830.84;5010468;28;20057;-80
2021/10/05 05:58:10;;;;;;;19.85;11.45;;;;;;;6.47;97.86;93834.72;5009886;28;20497;-80
2021/10/05 06:00:37;;;;;;;18.20;11.73;;;;;;;6.65;98.30;93831.88;5010457;28;20509;-80
2021/10/05 06:03:04;;;;;;;16.20;10.90;;;;;;;6.52;97.88;93789.84;5010431;28;20494;-80
2021/10/05 06:05:31;;;;;;;17.17;10.07;;;;;;;6.95;97.00;93832.00;5010792;28;20050;-80
2021/10/05 06:07:58;;;;;;;12.90;9.18;;;;;;;7.09;97.36;93831.22;5010328;28;20494;-80
2021/10/05 06:10:26;;;;;;;14.23;10.27;;;;;;;7.22;96.88;93828.09;5010733;28;20053;-80
2021/10/05 06:12:54;;;;;;;19.00;10.75;;;;;;;7.27;97.57;93804.56;5010399;28;20056;-80
2021/10/05 06:15:22;;;;;;;14.50;9.35;;;;;;;7.67;96.83;93834.22;5010293;28;20054;-80
2021/10/05 06:17:50;;;;;;;18.42;10.57;;;;;;;7.77;93.87;93826.31;5010413;28;20065;-80
2021/10/05 06:20:21;;;;;;;15.18;10.15;;;;;;;7.97;94.82;93842.69;5010073;28;20627;-80
2021/10/05 06:22:48;;;;;;;13.45;10.02;;;;;;;8.14;97.92;93830.50;5010563;28;20445;-80
2021/10/05 06:25:17;;;;;;;18.52;11.38;;;;;;;8.32;99.50;93842.13;5010327;28;20050;-81
2021/10/05 06:27:45;;;;;;;17.05;11.35;;;;;;;8.39;97.79;93817.38;5010311;28;20073;-81
2021/10/05 06:30:15;;;;;;;16.13;10.70;;;;;;;8.60;96.92;93831.22;5010042;28;20042;-81
2021/10/05 06:32:42;;;;;;;14.65;9.98;;;;;;;8.95;96.75;93840.81;5010288;28;20049;-81
2021/10/05 06:35:09;;;;;;;13.13;9.32;;;;;;;9.02;95.84;93836.53;5010325;28;20060;-81
2021/10/05 06:37:37;;;;;;;12.30;7.75;;;;;;;9.13;94.44;93829.34;5009670;28;20516;-81
2021/10/05 06:40:05;;;;;;;12.88;8.82;;;;;;;9.02;94.04;93777.59;5009869;28;20096;-82
2021/10/05 06:42:35;;;;;;;12.77;8.32;;;;;;;9.49;92.98;93823.25;5009663;28;20057;-81
2021/10/05 06:45:03;;;;;;;14.90;10.20;;;;;;;9.79;91.55;93835.91;5009933;28;20148;-81
2021/10/05 06:47:31;;;;;;;17.45;11.52;;;;;;;9.96;89.75;93828.66;5010050;28;20054;-81
2021/10/05 06:49:59;;;;;;;13.65;10.68;;;;;;;10.03;89.69;93831.28;5009560;28;20498;-82
2021/10/05 06:52:26;;;;;;;22.83;13.82;;;;;;;10.07;89.48;93818.84;5009694;28;20045;-81
2021/10/05 06:54:53;;;;;;;20.23;13.13;;;;;;;10.09;89.87;93798.94;5009655;28;20046;-81
2021/10/05 06:57:19;;;;;;;24.42;15.57;;;;;;;10.33;90.37;93820.75;5009570;28;20079;-81
2021/10/05 06:59:46;;;;;;;24.00;15.07;;;;;;;10.35;89.59;93816.19;5009719;28;20096;-83
2021/10/05 07:02:13;;;;;;;27.50;15.88;;;;;;;10.50;90.30;93817.84;5009696;28;20046;-82
2021/10/05 07:04:41;;;;;;;25.58;16.17;;;;;;;10.67;88.75;93833.69;5018177;28;20509;-83
2021/10/05 07:07:08;;;;;;;33.60;17.30;;;;;;;10.69;87.72;93819.66;5027788;28;20060;-82
2021/10/05 07:09:35;;;;;;;29.85;16.15;;;;;;;11.00;85.99;93840.66;5028697;28;20049;-82
2021/10/05 07:12:02;;;;;;;25.55;15.52;;;;;;;10.94;85.49;93811.38;5029461;28;20123;-83
2021/10/05 07:14:29;;;;;;;23.73;13.63;;;;;;;11.28;84.56;93831.19;5029581;28;20068;-82
2021/10/05 07:16:55;;;;;;;34.33;15.50;;;;;;;11.49;83.82;93835.34;5028779;28;20045;-82
2021/10/05 07:19:22;;;;;;;26.80;13.23;;;;;;;11.72;82.01;93831.53;5029266;28;20049;-83
2021/10/05 07:21:50;;;;;;;24.70;13.98;;;;;;;11.80;81.76;93833.88;5029311;28;20083;-83
2021/10/05 07:24:17;;;;;;;26.60;14.50;;;;;;;12.03;80.28;93838.59;5029143;28;20053;-82
2021/10/05 07:26:44;;;;;;;19.55;12.02;;;;;;;12.09;80.53;93829.28;5029289;28;20075;-83
2021/10/05 07:29:12;;;;;;;22.42;13.90;;;;;;;12.14;79.51;93823.53;5029330;28;20046;-82
2021/10/05 07:31:39;;;;;;;24.38;12.98;;;;;;;12.19;79.47;93843.53;5029282;28;20061;-83
2021/10/05 07:34:06;;;;;;;23.17;13.43;;;;;;;12.27;79.45;93813.19;5029302;28;20045;-83
2021/10/05 07:36:33;;;;;;;24.05;12.63;;;;;;;12.47;78.71;93829.53;5028879;28;20057;-83
2021/10/05 07:39:01;;;;;;;23.85;12.30;;;;;;;12.78;76.76;93840.88;5029891;28;20046;-82
2021/10/05 07:41:28;;;;;;;26.52;14.70;;;;;;;12.75;78.18;93836.94;5032398;28;20048;-82
2021/10/05 07:43:55;;;;;;;22.63;13.10;;;;;;;12.95;76.85;93815.38;5030612;28;20049;-82
2021/10/05 07:46:22;;;;;;;23.02;14.23;;;;;;;13.39;76.21;93833.53;5029007;28;20067;-82
2021/10/05 07:48:49;;;;;;;24.63;12.85;;;;;;;13.52;74.11;93819.72;5029028;28;20054;-82
2021/10/05 07:51:16;;;;;;;25.08;14.10;;;;;;;13.77;73.62;93816.31;5028845;28;20132;-82
2021/10/05 07:53:42;;;;;;;25.63;13.23;;;;;;;13.94;72.81;93802.84;5028711;28;20493;-83
2021/10/05 07:56:11;;;;;;;21.73;12.00;;;;;;;14.30;70.98;93842.56;5028713;28;20061;-84
2021/10/05 07:58:38;;;;;;;24.08;12.50;;;;;;;14.40;70.50;93834.34;5028843;28;20037;-83
2021/10/05 08:01:05;;;;;;;19.55;10.75;;;;;;;14.57;68.74;93824.97;5028683;28;20041;-83
2021/10/05 08:03:32;;;;;;;22.73;11.57;;;;;;;14.71;68.54;93835.13;5028513;28;20049;-83
2021/10/05 08:05:58;;;;;;;22.17;11.40;;;;;;;14.43;68.47;93831.28;5028564;28;20456;-83
2021/10/05 08:08:25;;;;;;;19.73;11.00;;;;;;;14.75;68.93;93835.50;5028858;28;20428;-83
2021/10/05 08:10:52;;;;;;;20.40;11.05;;;;;;;14.94;67.34;93838.81;5028609;28;20045;-83
2021/10/05 08:13:21;;;;;;;18.92;9.98;;;;;;;14.84;64.96;93816.06;5028681;28;20435;-83
2021/10/05 08:15:48;;;;;;;16.80;9.95;;;;;;;15.03;66.01;93834.91;5028852;28;20386;-83
2021/10/05 08:18:15;;;;;;;21.23;10.85;;;;;;;14.85;66.41;93796.19;5028457;28;20068;-82
2021/10/05 08:20:43;;;;;;;19.63;9.70;;;;;;;15.36;65.40;93835.41;5029941;28;20049;-84
2021/10/05 08:23:10;;;;;;;14.10;8.57;;;;;;;15.46;65.03;93829.69;5032442;28;20060;-84
2021/10/05 08:25:37;;;;;;;16.45;8.45;;;;;;;15.81;63.79;93846.22;5032102;28;20045;-83
2021/10/05 08:28:04;;;;;;;15.27;9.10;;;;;;;15.26;62.47;93825.59;5031905;28;20056;-82
2021/10/05 08:30:34;;;;;;;19.25;9.52;;;;;;;15.30;63.99;93836.28;5032286;28;20056;-84
2021/10/05 08:33:01;;;;;;;15.25;8.50;;;;;;;15.25;64.36;93828.41;5031886;28;20091;-83
2021/10/05 08:35:28;;;;;;;14.15;7.88;;;;;;;15.64;63.86;93844.31;5032068;28;20081;-82
2021/10/05 08:37:56;;;;;;;13.90;7.90;;;;;;;15.60;61.82;93835.44;5031719;28;20060;-83
2021/10/05 08:40:24;;;;;;;17.00;8.90;;;;;;;15.87;62.54;93837.53;5032279;28;20095;-82
2021/10/05 08:42:51;;;;;;;12.20;7.80;;;;;;;16.08;62.21;93841.41;5031616;28;20053;-83
2021/10/05 08:45:19;;;;;;;13.18;7.07;;;;;;;16.17;60.24;93821.09;5031405;28;20049;-82
2021/10/05 08:47:47;;;;;;;15.30;7.18;;;;;;;16.65;60.86;93832.09;5031604;28;20045;-83
2021/10/05 08:50:16;;;;;;;17.10;7.60;;;;;;;16.98;59.75;93823.84;5031421;28;20544;-83
2021/10/05 08:52:44;;;;;;;16.35;8.38;;;;;;;16.82;59.29;93823.56;5031821;28;20049;-83
2021/10/05 08:55:12;;;;;;;14.20;7.93;;;;;;;16.63;60.23;93825.56;5031532;28;20133;-83
2021/10/05 08:57:39;;;;;;;10.85;6.20;;;;;;;16.47;58.45;93807.13;5031284;28;20049;-84
2021/10/05 09:00:07;;;;;;;16.02;7.50;;;;;;;16.90;60.67;93812.03;5031403;28;20053;-84
2021/10/05 09:02:44;;;;;;;13.93;7.28;;;;;;;17.34;57.15;93804.44;5029122;28;20053;-83
2021/10/05 09:05:14;;;;;;;15.10;7.13;;;;;;;16.90;56.86;93796.47;5030092;28;20048;-84
2021/10/05 09:07:45;;;;;;;13.85;6.90;;;;;;;16.96;56.03;93798.88;5031235;28;20532;-83
2021/10/05 09:10:13;;;;;;;11.25;7.45;;;;;;;17.14;58.18;93793.75;5031303;28;20049;-84
2021/10/05 09:12:40;;;;;;;13.65;6.70;;;;;;;16.82;57.39;93787.25;5031361;28;20045;-84
2021/10/05 09:15:09;;;;;;;9.80;5.45;;;;;;;17.07;57.17;93775.72;5031384;28;20445;-83
2021/10/05 09:17:36;;;;;;;9.18;4.85;;;;;;;17.29;53.67;93798.38;5030705;28;20061;-84
2021/10/05 09:20:17;;;;;;;12.98;5.32;;;;;;;17.30;55.35;93805.94;5031177;28;20050;-83
2021/10/05 09:22:44;;;;;;;10.63;5.40;;;;;;;17.35;55.72;93792.22;5031296;28;20068;-83
2021/10/05 09:25:11;;;;;;;9.45;5.00;;;;;;;17.61;53.15;93797.81;5030965;28;20485;-83
2021/10/05 09:27:49;;;;;;;7.32;5.38;;;;;;;17.45;53.87;93770.84;5031365;28;20139;-84
2021/10/05 09:30:18;;;;;;;7.75;4.57;;;;;;;17.36;51.27;93783.44;5030963;28;20440;-84
2021/10/05 09:32:58;;;;;;;9.77;5.65;;;;;;;17.08;53.09;93796.25;5029708;28;20048;-85
2021/10/05 09:35:26;;;;;;;10.93;5.45;;;;;;;17.61;54.39;93795.19;5030943;28;20119;-83
2021/10/05 09:37:54;;;;;;;9.50;5.25;;;;;;;17.71;52.59;93792.75;5030683;28;20414;-83
2021/10/05 09:40:21;;;;;;;11.68;6.28;;;;;;;17.84;53.18;93783.81;5030608;28;20489;-84
2021/10/05 09:42:49;;;;;;;16.33;5.68;;;;;;;18.25;52.54;93785.38;5030590;28;20489;-83
2021/10/05 09:45:21;;;;;;;13.05;6.47;;;;;;;18.38;51.15;93784.22;5030188;28;20493;-83
2021/10/05 09:47:50;;;;;;;11.30;5.60;;;;;;;18.26;51.58;93782.53;5030401;28;20136;-84
2021/10/05 09:50:21;;;;;;;9.80;4.88;;;;;;;17.59;51.17;93734.91;5017565;28;20042;-83
2021/10/05 09:52:50;;;;;;;8.45;4.20;;;;;;;18.02;52.41;93781.97;5008926;28;20523;-85
2021/10/05 09:55:19;;;;;;;9.68;4.90;;;;;;;18.05;51.48;93776.25;5010321;28;20057;-84
2021/10/05 09:57:46;;;;;;;8.52;4.75;;;;;;;18.54;52.22;93783.34;5010349;28;20062;-84
2021/10/05 10:00:14;;;;;;;8.55;4.50;;;;;;;18.54;49.18;93788.53;5010481;28;20486;-84
2021/10/05 10:02:43;;;;;;;7.15;4.55;;;;;;;18.27;49.37;93781.50;5010308;28;20057;-84
2021/10/05 10:05:12;;;;;;;6.15;4.05;;;;;;;18.61;49.41;93762.31;5010618;28;20436;-84
2021/10/05 10:07:41;;;;;;;6.07;4.47;;;;;;;18.36;48.41;93781.03;5010013;28;20050;-84
2021/10/05 10:10:11;;;;;;;9.75;4.28;;;;;;;18.59;49.53;93772.19;5010366;28;20509;-84
2021/10/05 10:12:40;;;;;;;11.82;5.07;;;;;;;18.72;50.13;93752.00;5010046;28;20064;-85
2021/10/05 10:15:11;;;;;;;8.60;4.88;;;;;;;18.81;49.75;93743.50;5010373;28;20452;-84
2021/10/05 10:17:38;;;;;;;11.93;4.68;;;;;;;19.19;49.38;93756.56;5009936;28;20149;-84
2021/10/05 10:20:08;;;;;;;12.30;5.78;;;;;;;19.65;49.61;93742.25;5010550;28;20045;-84
2021/10/05 10:22:43;;;;;;;5.75;4.45;;;;;;;20.26;47.90;93748.78;5010324;28;20392;-85
2021/10/05 10:25:23;;;;;;;6.75;5.07;;;;;;;20.70;45.65;93760.59;5010343;28;20042;-85
2021/10/05 10:27:52;;;;;;;8.30;4.47;;;;;;;20.63;45.60;93741.00;5010583;28;20062;-85
2021/10/05 10:30:19;;;;;;;7.47;5.13;;;;;;;20.65;44.55;93741.53;5010064;28;20045;-86
2021/10/05 10:32:51;;;;;;;9.98;4.97;;;;;;;21.23;45.26;93756.19;5010394;28;20052;-84
2021/10/05 10:35:18;;;;;;;7.07;4.72;;;;;;;21.38;43.30;93739.69;5009868;28;20137;-84
2021/10/05 10:37:46;;;;;;;7.10;4.35;;;;;;;21.80;44.86;93744.88;5009941;28;20049;-83
2021/10/05 10:40:15;;;;;;;7.03;3.78;;;;;;;21.25;43.08;93735.03;5010216;28;20046;-84
2021/10/05 10:42:43;;;;;;;9.63;4.22;;;;;;;21.54;43.08;93730.00;5010007;28;20414;-84
2021/10/05 10:45:16;;;;;;;18.83;5.32;;;;;;;21.61;42.30;93727.91;5009954;28;20052;-87
2021/10/05 10:47:49;;;;;;;8.77;4.85;;;;;;;21.32;42.57;93702.38;5010233;28;20053;-84
2021/10/05 10:50:19;;;;;;;8.05;4.47;;;;;;;21.58;43.30;93710.13;5010095;28;20053;-86
2021/10/05 10:52:49;;;;;;;9.07;4.45;;;;;;;22.03;43.78;93728.56;5010505;28;20050;-84
2021/10/05 10:55:18;;;;;;;8.52;5.00;;;;;;;22.16;41.49;93705.47;5026099;28;20041;-85
2021/10/05 10:57:54;;;;;;;7.85;4.95;;;;;;;22.15;41.26;93727.47;5018072;28;20446;-86
2021/10/05 11:00:23;;;;;;;9.07;4.95;;;;;;;22.18;43.22;93698.16;5009694;28;20056;-85
2021/10/05 11:02:52;;;;;;;12.73;5.35;;;;;;;21.99;43.38;93716.28;5009561;28;20050;-87
2021/10/05 11:05:21;;;;;;;9.70;5.80;;;;;;;21.40;44.30;93710.69;5009594;28;20052;-88
2021/10/05 11:07:48;;;;;;;9.32;4.40;;;;;;;21.67;44.68;93714.81;5009447;28;20420;-86
2021/10/05 11:10:17;;;;;;;7.10;4.50;;;;;;;21.20;44.75;93712.31;5009552;28;20077;-84
2021/10/05 11:12:52;;;;;;;9.20;4.30;;;;;;;21.47;44.39;93712.00;5009415;28;20046;-86
2021/10/05 11:15:34;;;;;;;8.13;4.10;;;;;;;20.98;46.42;93708.16;5009517;28;20049;-84
2021/10/05 11:18:05;;;;;;;8.00;4.20;;;;;;;20.50;46.38;93687.50;5009273;28;20058;-84
2021/10/05 11:20:32;;;;;;;5.75;3.42;;;;;;;20.52;47.12;93696.66;5009478;28;20072;-85
2021/10/05 11:23:01;;;;;;;7.43;3.70;;;;;;;20.61;46.86;93689.09;5009148;28;20493;-85
2021/10/05 11:25:28;;;;;;;5.85;3.40;;;;;;;21.04;47.14;93698.47;5009487;28;20057;-86
2021/10/05 11:27:57;;;;;;;6.68;4.07;;;;;;;20.83;47.20;93690.66;5009412;28;20054;-85
2021/10/05 11:30:24;;;;;;;7.95;3.70;;;;;;;20.75;47.48;93662.44;5009352;28;20050;-84
2021/10/05 11:32:51;;;;;;;5.80;3.60;;;;;;;20.38;47.07;93685.94;5009548;28;20480;-84
2021/10/05 11:35:18;;;;;;;6.07;3.75;;;;;;;20.46;47.48;93637.66;5008962;28;20054;-86